sensor_id;sensor_type;location;lat;lon;timestamp;pressure;altitude;pressure_sealevel;temperature;humidity
21096;BME280;10706;49.036;12.112;2023-02-19T00:01:45;98095.81;;;8.57;90.25
21096;BME280;10706;49.036;12.112;2023-02-19T00:04:18;98094.00;;;8.51;90.90
21096;BME280;10706;49.036;12.112;2023-02-19T00:06:45;98096.72;;;8.45;91.00
21096;BME280;10706;49.036;12.112;2023-02-19T00:09:13;98093.63;;;8.41;92.47
21096;BME280;10706;49.036;12.112;2023-02-19T00:11:40;98082.78;;;8.43;92.74
21096;BME280;10706;49.036;12.112;2023-02-19T00:14:07;98097.72;;;8.37;91.40
21096;BME280;10706;49.036;12.112;2023-02-19T00:16:36;98088.13;;;8.36;92.88
21096;BME280;10706;49.036;12.112;2023-02-19T00:19:06;98088.53;;;8.33;93.01
21096;BME280;10706;49.036;12.112;2023-02-19T00:21:32;98090.19;;;8.34;92.83
21096;BME280;10706;49.036;12.112;2023-02-19T00:24:02;98081.03;;;8.23;93.92
21096;BME280;10706;49.036;12.112;2023-02-19T00:26:29;98082.94;;;8.09;96.01
21096;BME280;10706;49.036;12.112;2023-02-19T00:28:56;98079.72;;;7.94;97.10
21096;BME280;10706;49.036;12.112;2023-02-19T00:31:23;98080.97;;;7.85;99.41
21096;BME280;10706;49.036;12.112;2023-02-19T00:33:53;98078.53;;;7.76;100.00
21096;BME280;10706;49.036;12.112;2023-02-19T00:36:19;98083.03;;;7.69;100.00
21096;BME280;10706;49.036;12.112;2023-02-19T00:38:46;98078.75;;;7.62;100.00
21096;BME280;10706;49.036;12.112;2023-02-19T00:41:13;98087.16;;;7.52;100.00
21096;BME280;10706;49.036;12.112;2023-02-19T00:43:58;98073.66;;;7.47;100.00
21096;BME280;10706;49.036;12.112;2023-02-19T00:46:29;98077.16;;;7.40;100.00
21096;BME280;10706;49.036;12.112;2023-02-19T00:48:56;98071.84;;;7.40;100.00
21096;BME280;10706;49.036;12.112;2023-02-19T00:51:28;98070.63;;;7.36;100.00
21096;BME280;10706;49.036;12.112;2023-02-19T00:53:54;98071.63;;;7.35;100.00
21096;BME280;10706;49.036;12.112;2023-02-19T00:56:21;98073.69;;;7.33;100.00
21096;BME280;10706;49.036;12.112;2023-02-19T00:58:47;98073.88;;;7.32;100.00
21096;BME280;10706;49.036;12.112;2023-02-19T01:01:14;98070.63;;;7.30;100.00
21096;BME280;10706;49.036;12.112;2023-02-19T01:03:40;98071.47;;;7.30;100.00
21096;BME280;10706;49.036;12.112;2023-02-19T01:06:08;98074.31;;;7.29;100.00
21096;BME280;10706;49.036;12.112;2023-02-19T01:08:34;98070.00;;;7.28;100.00
21096;BME280;10706;49.036;12.112;2023-02-19T01:11:01;98063.91;;;7.27;100.00
21096;BME280;10706;49.036;12.112;2023-02-19T01:13:28;98065.53;;;7.28;100.00
21096;BME280;10706;49.036;12.112;2023-02-19T01:16:06;98059.38;;;7.28;100.00
21096;BME280;10706;49.036;12.112;2023-02-19T01:18:33;98065.53;;;7.28;100.00
21096;BME280;10706;49.036;12.112;2023-02-19T01:21:03;98054.91;;;7.28;100.00
21096;BME280;10706;49.036;12.112;2023-02-19T01:23:29;98060.22;;;7.28;100.00
21096;BME280;10706;49.036;12.112;2023-02-19T01:25:54;98052.25;;;7.28;100.00
21096;BME280;10706;49.036;12.112;2023-02-19T01:28:20;98045.31;;;7.27;100.00
21096;BME280;10706;49.036;12.112;2023-02-19T01:30:47;98036.53;;;7.27;100.00
21096;BME280;10706;49.036;12.112;2023-02-19T01:33:13;98033.44;;;7.36;100.00
21096;BME280;10706;49.036;12.112;2023-02-19T01:35:39;98028.72;;;7.38;100.00
21096;BME280;10706;49.036;12.112;2023-02-19T01:38:06;98020.13;;;7.43;100.00
21096;BME280;10706;49.036;12.112;2023-02-19T01:40:33;98022.78;;;7.50;100.00
21096;BME280;10706;49.036;12.112;2023-02-19T01:42:59;98021.13;;;7.55;100.00
21096;BME280;10706;49.036;12.112;2023-02-19T01:45:37;98015.63;;;7.57;100.00
21096;BME280;10706;49.036;12.112;2023-02-19T01:48:24;98004.78;;;7.58;100.00
21096;BME280;10706;49.036;12.112;2023-02-19T01:51:13;98005.00;;;7.50;100.00
21096;BME280;10706;49.036;12.112;2023-02-19T01:53:46;98005.63;;;7.46;100.00
21096;BME280;10706;49.036;12.112;2023-02-19T01:56:15;98001.53;;;7.43;100.00
21096;BME280;10706;49.036;12.112;2023-02-19T01:58:42;97991.13;;;7.42;100.00
21096;BME280;10706;49.036;12.112;2023-02-19T02:01:08;97990.75;;;7.38;100.00
21096;BME280;10706;49.036;12.112;2023-02-19T02:03:36;97988.28;;;7.36;100.00
21096;BME280;10706;49.036;12.112;2023-02-19T02:08:40;97975.63;;;7.32;100.00
21096;BME280;10706;49.036;12.112;2023-02-19T02:11:25;97967.03;;;7.30;100.00
21096;BME280;10706;49.036;12.112;2023-02-19T02:13:52;97963.56;;;7.29;100.00
21096;BME280;10706;49.036;12.112;2023-02-19T02:26:06;97949.69;;;7.27;100.00
21096;BME280;10706;49.036;12.112;2023-02-19T02:31:41;97930.50;;;7.25;100.00
21096;BME280;10706;49.036;12.112;2023-02-19T02:34:18;97929.44;;;7.26;100.00
21096;BME280;10706;49.036;12.112;2023-02-19T02:36:52;97928.84;;;7.24;100.00
21096;BME280;10706;49.036;12.112;2023-02-19T02:39:22;97920.88;;;7.24;100.00
21096;BME280;10706;49.036;12.112;2023-02-19T02:41:59;97919.06;;;7.25;100.00
21096;BME280;10706;49.036;12.112;2023-02-19T02:44:44;97917.22;;;7.25;100.00
21096;BME280;10706;49.036;12.112;2023-02-19T02:47:36;97915.56;;;7.24;100.00
21096;BME280;10706;49.036;12.112;2023-02-19T02:50:06;97918.22;;;7.24;100.00
21096;BME280;10706;49.036;12.112;2023-02-19T02:52:36;97919.28;;;7.23;100.00
21096;BME280;10706;49.036;12.112;2023-02-19T02:55:23;97912.72;;;7.26;100.00
21096;BME280;10706;49.036;12.112;2023-02-19T02:57:50;97910.25;;;7.24;100.00
21096;BME280;10706;49.036;12.112;2023-02-19T03:00:16;97902.28;;;7.24;100.00
21096;BME280;10706;49.036;12.112;2023-02-19T03:02:43;97899.44;;;7.26;100.00
21096;BME280;10706;49.036;12.112;2023-02-19T03:05:19;97894.31;;;7.24;100.00
21096;BME280;10706;49.036;12.112;2023-02-19T03:08:06;97884.31;;;7.26;100.00
21096;BME280;10706;49.036;12.112;2023-02-19T03:11:08;97882.69;;;7.25;100.00
21096;BME280;10706;49.036;12.112;2023-02-19T03:14:44;97893.91;;;7.27;100.00
21096;BME280;10706;49.036;12.112;2023-02-19T03:17:26;97890.66;;;7.25;100.00
21096;BME280;10706;49.036;12.112;2023-02-19T03:20:18;97898.63;;;7.25;100.00
21096;BME280;10706;49.036;12.112;2023-02-19T03:22:46;97892.72;;;7.23;100.00
21096;BME280;10706;49.036;12.112;2023-02-19T03:25:20;97891.66;;;7.24;100.00
21096;BME280;10706;49.036;12.112;2023-02-19T03:28:09;97888.22;;;7.24;100.00
21096;BME280;10706;49.036;12.112;2023-02-19T03:30:42;97884.75;;;7.23;100.00
21096;BME280;10706;49.036;12.112;2023-02-19T03:35:56;97871.25;;;7.25;100.00
21096;BME280;10706;49.036;12.112;2023-02-19T03:41:11;97884.94;;;7.28;100.00
21096;BME280;10706;49.036;12.112;2023-02-19T03:46:34;97887.34;;;7.30;100.00
21096;BME280;10706;49.036;12.112;2023-02-19T04:00:10;97881.84;;;7.31;100.00
21096;BME280;10706;49.036;12.112;2023-02-19T04:02:46;97872.25;;;7.30;100.00
21096;BME280;10706;49.036;12.112;2023-02-19T04:05:27;97860.81;;;7.30;100.00
21096;BME280;10706;49.036;12.112;2023-02-19T04:08:01;97868.56;;;7.31;100.00
21096;BME280;10706;49.036;12.112;2023-02-19T04:10:29;97861.19;;;7.33;100.00
21096;BME280;10706;49.036;12.112;2023-02-19T04:13:05;97853.81;;;7.35;100.00
21096;BME280;10706;49.036;12.112;2023-02-19T04:15:35;97851.19;;;7.35;100.00
21096;BME280;10706;49.036;12.112;2023-02-19T04:18:10;97851.19;;;7.35;100.00
21096;BME280;10706;49.036;12.112;2023-02-19T04:20:42;97853.81;;;7.35;100.00
21096;BME280;10706;49.036;12.112;2023-02-19T04:23:08;97850.16;;;7.36;100.00
21096;BME280;10706;49.036;12.112;2023-02-19T04:25:37;97846.91;;;7.34;100.00
21096;BME280;10706;49.036;12.112;2023-02-19T04:28:04;97845.88;;;7.35;100.00
21096;BME280;10706;49.036;12.112;2023-02-19T04:30:29;97860.19;;;7.34;100.00
21096;BME280;10706;49.036;12.112;2023-02-19T04:32:55;97856.47;;;7.35;100.00
21096;BME280;10706;49.036;12.112;2023-02-19T04:35:21;97865.06;;;7.37;100.00
21096;BME280;10706;49.036;12.112;2023-02-19T04:37:46;97875.91;;;7.36;100.00
21096;BME280;10706;49.036;12.112;2023-02-19T04:40:12;97860.97;;;7.42;100.00
21096;BME280;10706;49.036;12.112;2023-02-19T04:42:38;97865.84;;;7.45;100.00
21096;BME280;10706;49.036;12.112;2023-02-19T04:45:04;97863.19;;;7.45;100.00
21096;BME280;10706;49.036;12.112;2023-02-19T04:47:31;97871.75;;;7.47;100.00
21096;BME280;10706;49.036;12.112;2023-02-19T04:49:57;97877.66;;;7.49;100.00
21096;BME280;10706;49.036;12.112;2023-02-19T04:52:23;97877.47;;;7.50;100.00
21096;BME280;10706;49.036;12.112;2023-02-19T04:54:48;97880.13;;;7.50;100.00
21096;BME280;10706;49.036;12.112;2023-02-19T04:57:14;97876.84;;;7.55;100.00
21096;BME280;10706;49.036;12.112;2023-02-19T04:59:40;97870.94;;;7.53;100.00
21096;BME280;10706;49.036;12.112;2023-02-19T05:02:06;97880.53;;;7.54;100.00
21096;BME280;10706;49.036;12.112;2023-02-19T05:04:31;97878.06;;;7.59;100.00
21096;BME280;10706;49.036;12.112;2023-02-19T05:06:57;97874.78;;;7.57;100.00
21096;BME280;10706;49.036;12.112;2023-02-19T05:09:23;97877.06;;;7.53;100.00
21096;BME280;10706;49.036;12.112;2023-02-19T05:11:49;97887.88;;;7.52;100.00
21096;BME280;10706;49.036;12.112;2023-02-19T05:14:14;97895.47;;;7.48;100.00
21096;BME280;10706;49.036;12.112;2023-02-19T05:16:41;97886.09;;;7.46;100.00
21096;BME280;10706;49.036;12.112;2023-02-19T05:19:10;97880.31;;;7.49;100.00
21096;BME280;10706;49.036;12.112;2023-02-19T05:21:37;97884.66;;;7.43;100.00
21096;BME280;10706;49.036;12.112;2023-02-19T05:24:05;97881.00;;;7.37;100.00
21096;BME280;10706;49.036;12.112;2023-02-19T05:26:31;97885.50;;;7.37;100.00
21096;BME280;10706;49.036;12.112;2023-02-19T05:28:57;97901.22;;;7.38;100.00
21096;BME280;10706;49.036;12.112;2023-02-19T05:31:23;97909.00;;;7.33;100.00
21096;BME280;10706;49.036;12.112;2023-02-19T05:33:49;97909.84;;;7.34;100.00
21096;BME280;10706;49.036;12.112;2023-02-19T05:36:19;97901.25;;;7.32;100.00
21096;BME280;10706;49.036;12.112;2023-02-19T05:38:46;97893.72;;;7.29;100.00
21096;BME280;10706;49.036;12.112;2023-02-19T05:41:18;97892.50;;;7.25;100.00
21096;BME280;10706;49.036;12.112;2023-02-19T05:43:46;97888.00;;;7.18;100.00
21096;BME280;10706;49.036;12.112;2023-02-19T05:46:16;97888.84;;;7.19;100.00
21096;BME280;10706;49.036;12.112;2023-02-19T05:48:44;97893.31;;;7.25;100.00
21096;BME280;10706;49.036;12.112;2023-02-19T05:51:16;97900.25;;;7.26;100.00
21096;BME280;10706;49.036;12.112;2023-02-19T05:53:43;97906.59;;;7.25;100.00
21096;BME280;10706;49.036;12.112;2023-02-19T05:58:51;97904.94;;;7.24;100.00
21096;BME280;10706;49.036;12.112;2023-02-19T06:01:19;97908.66;;;7.23;100.00
21096;BME280;10706;49.036;12.112;2023-02-19T06:03:46;97903.53;;;7.22;100.00
21096;BME280;10706;49.036;12.112;2023-02-19T06:06:17;97906.59;;;7.18;100.00
21096;BME280;10706;49.036;12.112;2023-02-19T06:08:43;97902.13;;;7.19;100.00
21096;BME280;10706;49.036;12.112;2023-02-19T06:11:09;97916.22;;;7.19;100.00
21096;BME280;10706;49.036;12.112;2023-02-19T06:13:35;97917.63;;;7.22;100.00
21096;BME280;10706;49.036;12.112;2023-02-19T06:16:06;97924.16;;;7.26;100.00
21096;BME280;10706;49.036;12.112;2023-02-19T06:18:32;97925.19;;;7.25;100.00
21096;BME280;10706;49.036;12.112;2023-02-19T06:21:07;97928.03;;;7.30;100.00
21096;BME280;10706;49.036;12.112;2023-02-19T06:23:33;97920.06;;;7.30;100.00
21096;BME280;10706;49.036;12.112;2023-02-19T06:26:11;97929.03;;;7.36;100.00
21096;BME280;10706;49.036;12.112;2023-02-19T06:28:38;97927.41;;;7.35;99.76
21096;BME280;10706;49.036;12.112;2023-02-19T06:31:05;97935.38;;;7.35;99.26
21096;BME280;10706;49.036;12.112;2023-02-19T06:33:32;97951.31;;;7.35;99.90
21096;BME280;10706;49.036;12.112;2023-02-19T06:36:00;97936.97;;;7.43;97.97
21096;BME280;10706;49.036;12.112;2023-02-19T06:38:27;97945.16;;;7.41;97.70
21096;BME280;10706;49.036;12.112;2023-02-19T06:40:53;97945.16;;;7.41;98.07
21096;BME280;10706;49.036;12.112;2023-02-19T06:43:19;97952.50;;;7.39;99.04
21096;BME280;10706;49.036;12.112;2023-02-19T06:45:44;97966.63;;;7.39;98.12
21096;BME280;10706;49.036;12.112;2023-02-19T06:48:12;97959.66;;;7.38;98.01
21096;BME280;10706;49.036;12.112;2023-02-19T06:50:37;97975.81;;;7.37;97.65
21096;BME280;10706;49.036;12.112;2023-02-19T06:53:03;97976.41;;;7.39;96.62
21096;BME280;10706;49.036;12.112;2023-02-19T06:55:29;97983.94;;;7.49;94.71
21096;BME280;10706;49.036;12.112;2023-02-19T06:57:55;97981.53;;;7.47;95.03
21096;BME280;10706;49.036;12.112;2023-02-19T07:00:20;97992.16;;;7.47;95.57
21096;BME280;10706;49.036;12.112;2023-02-19T07:02:46;98002.53;;;7.49;94.47
21096;BME280;10706;49.036;12.112;2023-02-19T07:05:12;97996.84;;;7.45;94.25
21096;BME280;10706;49.036;12.112;2023-02-19T07:07:37;97996.03;;;7.45;94.20
21096;BME280;10706;49.036;12.112;2023-02-19T07:10:04;98000.94;;;7.48;93.22
21096;BME280;10706;49.036;12.112;2023-02-19T07:12:29;98004.19;;;7.50;93.29
21096;BME280;10706;49.036;12.112;2023-02-19T07:14:55;98007.66;;;7.50;93.87
21096;BME280;10706;49.036;12.112;2023-02-19T07:17:21;98010.31;;;7.50;94.20
21096;BME280;10706;49.036;12.112;2023-02-19T07:19:46;98011.75;;;7.53;93.21
21096;BME280;10706;49.036;12.112;2023-02-19T07:22:12;98001.13;;;7.53;91.92
21096;BME280;10706;49.036;12.112;2023-02-19T07:24:38;98009.69;;;7.55;93.33
21096;BME280;10706;49.036;12.112;2023-02-19T07:27:03;97998.63;;;7.58;91.71
21096;BME280;10706;49.036;12.112;2023-02-19T07:29:29;98005.78;;;7.57;91.60
21096;BME280;10706;49.036;12.112;2023-02-19T07:31:55;98009.25;;;7.58;91.99
21096;BME280;10706;49.036;12.112;2023-02-19T07:34:20;98012.97;;;7.57;92.19
21096;BME280;10706;49.036;12.112;2023-02-19T07:36:46;98025.00;;;7.59;91.56
21096;BME280;10706;49.036;12.112;2023-02-19T07:39:13;98023.78;;;7.62;91.91
21096;BME280;10706;49.036;12.112;2023-02-19T07:41:40;98025.41;;;7.63;91.26
21096;BME280;10706;49.036;12.112;2023-02-19T07:44:05;98029.47;;;7.66;91.78
21096;BME280;10706;49.036;12.112;2023-02-19T07:46:31;98028.06;;;7.63;92.02
21096;BME280;10706;49.036;12.112;2023-02-19T07:48:58;98026.22;;;7.64;92.13
21096;BME280;10706;49.036;12.112;2023-02-19T07:51:24;98046.44;;;7.71;91.79
21096;BME280;10706;49.036;12.112;2023-02-19T07:53:50;98043.75;;;7.78;90.37
21096;BME280;10706;49.036;12.112;2023-02-19T07:56:17;98041.50;;;7.82;91.13
21096;BME280;10706;49.036;12.112;2023-02-19T07:58:43;98041.28;;;7.83;91.60
21096;BME280;10706;49.036;12.112;2023-02-19T08:01:20;98048.88;;;7.79;90.93
21096;BME280;10706;49.036;12.112;2023-02-19T08:04:05;98040.69;;;7.81;91.16
21096;BME280;10706;49.036;12.112;2023-02-19T08:06:31;98049.66;;;7.87;89.64
21096;BME280;10706;49.036;12.112;2023-02-19T08:08:56;98049.47;;;7.88;90.17
21096;BME280;10706;49.036;12.112;2023-02-19T08:11:22;98036.59;;;7.85;89.93
21096;BME280;10706;49.036;12.112;2023-02-19T08:14:07;98040.25;;;7.84;90.83
21096;BME280;10706;49.036;12.112;2023-02-19T08:16:32;98040.03;;;7.92;90.98
21096;BME280;10706;49.036;12.112;2023-02-19T08:18:58;98043.88;;;8.03;90.19
21096;BME280;10706;49.036;12.112;2023-02-19T08:21:24;98055.91;;;8.12;88.64
21096;BME280;10706;49.036;12.112;2023-02-19T08:23:50;98063.38;;;8.35;89.15
21096;BME280;10706;49.036;12.112;2023-02-19T08:26:15;98057.63;;;8.38;87.97
21096;BME280;10706;49.036;12.112;2023-02-19T08:28:41;98058.03;;;8.42;87.29
21096;BME280;10706;49.036;12.112;2023-02-19T08:31:09;98075.19;;;8.46;86.60
21096;BME280;10706;49.036;12.112;2023-02-19T08:33:36;98077.06;;;8.39;86.50
21096;BME280;10706;49.036;12.112;2023-02-19T08:36:07;98076.09;;;8.33;87.36
21096;BME280;10706;49.036;12.112;2023-02-19T08:38:35;98079.56;;;8.34;87.01
21096;BME280;10706;49.036;12.112;2023-02-19T08:41:07;98084.88;;;8.27;87.87
21096;BME280;10706;49.036;12.112;2023-02-19T08:43:34;98080.59;;;8.26;88.32
21096;BME280;10706;49.036;12.112;2023-02-19T08:45:59;98075.69;;;8.30;87.72
21096;BME280;10706;49.036;12.112;2023-02-19T08:48:25;98078.34;;;8.30;86.80
21096;BME280;10706;49.036;12.112;2023-02-19T08:51:00;98080.56;;;8.33;85.75
21096;BME280;10706;49.036;12.112;2023-02-19T08:53:31;98075.63;;;8.36;86.91
21096;BME280;10706;49.036;12.112;2023-02-19T08:55:57;98079.09;;;8.50;86.14
21096;BME280;10706;49.036;12.112;2023-02-19T08:58:23;98076.19;;;8.52;84.61
21096;BME280;10706;49.036;12.112;2023-02-19T09:00:51;98089.56;;;8.45;84.90
21096;BME280;10706;49.036;12.112;2023-02-19T09:03:17;98094.06;;;8.45;86.69
21096;BME280;10706;49.036;12.112;2023-02-19T09:05:43;98090.97;;;8.41;85.43
21096;BME280;10706;49.036;12.112;2023-02-19T09:08:11;98090.59;;;8.37;86.04
21096;BME280;10706;49.036;12.112;2023-02-19T09:10:38;98097.53;;;8.38;86.76
21096;BME280;10706;49.036;12.112;2023-02-19T09:13:04;98096.09;;;8.43;85.54
21096;BME280;10706;49.036;12.112;2023-02-19T09:15:29;98101.22;;;8.37;86.41
21096;BME280;10706;49.036;12.112;2023-02-19T09:17:56;98103.28;;;8.42;86.50
21096;BME280;10706;49.036;12.112;2023-02-19T09:20:21;98110.63;;;8.40;87.18
21096;BME280;10706;49.036;12.112;2023-02-19T09:22:47;98113.50;;;8.38;85.63
21096;BME280;10706;49.036;12.112;2023-02-19T09:25:13;98108.97;;;8.52;86.05
21096;BME280;10706;49.036;12.112;2023-02-19T09:27:39;98108.56;;;8.49;86.40
21096;BME280;10706;49.036;12.112;2023-02-19T09:30:05;98106.31;;;8.46;85.80
21096;BME280;10706;49.036;12.112;2023-02-19T09:32:32;98107.72;;;8.48;85.83
21096;BME280;10706;49.036;12.112;2023-02-19T09:34:58;98119.44;;;8.47;84.46
21096;BME280;10706;49.036;12.112;2023-02-19T09:37:27;98113.22;;;8.60;84.75
21096;BME280;10706;49.036;12.112;2023-02-19T09:39:54;98114.63;;;8.63;84.98
21096;BME280;10706;49.036;12.112;2023-02-19T09:42:28;98122.88;;;8.54;85.05
21096;BME280;10706;49.036;12.112;2023-02-19T09:44:58;98128.00;;;8.49;84.98
21096;BME280;10706;49.036;12.112;2023-02-19T09:47:30;98128.22;;;8.48;84.97
21096;BME280;10706;49.036;12.112;2023-02-19T09:50:08;98128.66;;;8.45;85.54
21096;BME280;10706;49.036;12.112;2023-02-19T09:52:49;98122.69;;;8.43;84.70
21096;BME280;10706;49.036;12.112;2023-02-19T09:55:31;98137.66;;;8.44;85.68
21096;BME280;10706;49.036;12.112;2023-02-19T09:58:01;98137.84;;;8.49;85.75
21096;BME280;10706;49.036;12.112;2023-02-19T10:00:33;98141.91;;;8.51;84.94
21096;BME280;10706;49.036;12.112;2023-02-19T10:03:05;98149.88;;;8.58;83.84
21096;BME280;10706;49.036;12.112;2023-02-19T10:05:32;98146.78;;;8.61;84.49
21096;BME280;10706;49.036;12.112;2023-02-19T10:07:59;98158.88;;;8.64;83.83
21096;BME280;10706;49.036;12.112;2023-02-19T10:10:34;98160.22;;;8.80;82.72
21096;BME280;10706;49.036;12.112;2023-02-19T10:15:59;98164.69;;;8.86;81.56
21096;BME280;10706;49.036;12.112;2023-02-19T10:18:30;98165.31;;;8.81;82.73
21096;BME280;10706;49.036;12.112;2023-02-19T10:20:56;98167.78;;;8.83;83.06
21096;BME280;10706;49.036;12.112;2023-02-19T10:23:23;98172.44;;;8.87;83.63
21096;BME280;10706;49.036;12.112;2023-02-19T10:25:55;98166.91;;;8.89;83.08
21096;BME280;10706;49.036;12.112;2023-02-19T10:28:28;98167.50;;;8.98;81.54
21096;BME280;10706;49.036;12.112;2023-02-19T10:31:00;98165.25;;;8.94;81.88
21096;BME280;10706;49.036;12.112;2023-02-19T10:33:26;98178.19;;;8.91;80.83
21096;BME280;10706;49.036;12.112;2023-02-19T10:38:28;98163.84;;;8.92;81.09
21096;BME280;10706;49.036;12.112;2023-02-19T10:41:07;98180.22;;;8.89;80.88
21096;BME280;10706;49.036;12.112;2023-02-19T10:43:42;98175.72;;;8.89;80.65
21096;BME280;10706;49.036;12.112;2023-02-19T10:46:26;98175.72;;;8.89;81.23
21096;BME280;10706;49.036;12.112;2023-02-19T10:49:01;98180.88;;;8.84;81.22
21096;BME280;10706;49.036;12.112;2023-02-19T10:51:36;98180.31;;;8.75;82.27
21096;BME280;10706;49.036;12.112;2023-02-19T10:54:19;98180.13;;;8.70;81.49
21096;BME280;10706;49.036;12.112;2023-02-19T10:56:49;98175.63;;;8.71;82.07
21096;BME280;10706;49.036;12.112;2023-02-19T10:59:24;98177.47;;;8.70;82.08
21096;BME280;10706;49.036;12.112;2023-02-19T11:02:02;98201.47;;;8.57;83.16
21096;BME280;10706;49.036;12.112;2023-02-19T11:04:31;98187.81;;;8.47;83.70
21096;BME280;10706;49.036;12.112;2023-02-19T11:07:13;98197.84;;;8.45;83.99
21096;BME280;10706;49.036;12.112;2023-02-19T11:09:44;98197.41;;;8.41;84.67
21096;BME280;10706;49.036;12.112;2023-02-19T11:12:12;98191.69;;;8.44;84.10
21096;BME280;10706;49.036;12.112;2023-02-19T11:14:43;98196.34;;;8.55;83.42
21096;BME280;10706;49.036;12.112;2023-02-19T11:17:28;98193.47;;;8.64;83.70
21096;BME280;10706;49.036;12.112;2023-02-19T11:20:03;98191.75;;;8.76;82.55
21096;BME280;10706;49.036;12.112;2023-02-19T11:22:36;98191.16;;;8.74;82.19
21096;BME280;10706;49.036;12.112;2023-02-19T11:25:05;98198.13;;;8.75;81.40
21096;BME280;10706;49.036;12.112;2023-02-19T11:27:32;98190.31;;;8.80;81.34
21096;BME280;10706;49.036;12.112;2023-02-19T11:35:38;98187.47;;;8.75;79.68
21096;BME280;10706;49.036;12.112;2023-02-19T11:38:08;98181.31;;;8.74;80.92
21096;BME280;10706;49.036;12.112;2023-02-19T11:41:11;98184.22;;;8.73;81.10
21096;BME280;10706;49.036;12.112;2023-02-19T11:49:14;98189.53;;;8.73;81.59
21096;BME280;10706;49.036;12.112;2023-02-19T11:52:51;98191.63;;;8.64;80.80
21096;BME280;10706;49.036;12.112;2023-02-19T11:58:57;98180.66;;;8.86;78.58
21096;BME280;10706;49.036;12.112;2023-02-19T12:07:46;98200.72;;;8.43;84.83
21096;BME280;10706;49.036;12.112;2023-02-19T12:17:04;98201.25;;;8.59;82.31
21096;BME280;10706;49.036;12.112;2023-02-19T12:22:32;98185.78;;;8.87;80.21
21096;BME280;10706;49.036;12.112;2023-02-19T12:28:32;98194.47;;;9.40;77.84
21096;BME280;10706;49.036;12.112;2023-02-19T12:36:36;98198.28;;;9.50;76.84
21096;BME280;10706;49.036;12.112;2023-02-19T12:39:23;98202.03;;;9.43;75.79
21096;BME280;10706;49.036;12.112;2023-02-19T12:45:15;98184.72;;;10.02;75.70
21096;BME280;10706;49.036;12.112;2023-02-19T12:48:10;98199.09;;;10.01;75.75
21096;BME280;10706;49.036;12.112;2023-02-19T12:50:38;98202.81;;;10.19;73.75
21096;BME280;10706;49.036;12.112;2023-02-19T12:53:22;98211.78;;;9.81;76.01
21096;BME280;10706;49.036;12.112;2023-02-19T12:55:50;98226.72;;;9.63;75.64
21096;BME280;10706;49.036;12.112;2023-02-19T12:58:40;98212.41;;;9.26;80.61
21096;BME280;10706;49.036;12.112;2023-02-19T13:01:10;98230.16;;;9.00;83.25
21096;BME280;10706;49.036;12.112;2023-02-19T13:03:53;98221.34;;;8.54;85.88
21096;BME280;10706;49.036;12.112;2023-02-19T13:06:41;98216.47;;;8.18;88.19
21096;BME280;10706;49.036;12.112;2023-02-19T13:09:21;98215.88;;;8.16;88.42
21096;BME280;10706;49.036;12.112;2023-02-19T13:14:44;98230.56;;;8.38;90.17
21096;BME280;10706;49.036;12.112;2023-02-19T13:23:22;98230.50;;;8.72;85.62
21096;BME280;10706;49.036;12.112;2023-02-19T13:36:09;98207.56;;;9.48;79.95
21096;BME280;10706;49.036;12.112;2023-02-19T13:38:42;98199.75;;;9.46;79.67
21096;BME280;10706;49.036;12.112;2023-02-19T13:41:27;98206.00;;;9.33;78.61
21096;BME280;10706;49.036;12.112;2023-02-19T13:44:00;98206.19;;;9.39;79.16
21096;BME280;10706;49.036;12.112;2023-02-19T13:46:37;98203.66;;;9.44;77.53
21096;BME280;10706;49.036;12.112;2023-02-19T13:52:01;98211.34;;;9.27;77.96
21096;BME280;10706;49.036;12.112;2023-02-19T13:54:34;98216.25;;;9.37;79.09
21096;BME280;10706;49.036;12.112;2023-02-19T13:57:27;98208.34;;;9.99;77.20
21096;BME280;10706;49.036;12.112;2023-02-19T13:59:57;98210.50;;;10.34;75.36
21096;BME280;10706;49.036;12.112;2023-02-19T14:02:30;98210.06;;;10.74;74.31
21096;BME280;10706;49.036;12.112;2023-02-19T14:05:02;98224.38;;;10.79;71.40
21096;BME280;10706;49.036;12.112;2023-02-19T14:10:04;98213.97;;;11.20;69.95
21096;BME280;10706;49.036;12.112;2023-02-19T14:12:35;98205.06;;;10.77;71.72
21096;BME280;10706;49.036;12.112;2023-02-19T14:17:49;98210.56;;;10.27;71.31
21096;BME280;10706;49.036;12.112;2023-02-19T14:30:44;98221.94;;;10.59;69.77
21096;BME280;10706;49.036;12.112;2023-02-19T14:33:14;98226.72;;;10.32;71.22
21096;BME280;10706;49.036;12.112;2023-02-19T14:35:45;98217.97;;;10.00;72.81
21096;BME280;10706;49.036;12.112;2023-02-19T14:38:24;98232.94;;;9.76;73.78
21096;BME280;10706;49.036;12.112;2023-02-19T14:40:53;98239.00;;;9.64;72.36
21096;BME280;10706;49.036;12.112;2023-02-19T14:43:23;98238.66;;;9.54;74.32
21096;BME280;10706;49.036;12.112;2023-02-19T14:45:57;98240.06;;;9.57;73.64
21096;BME280;10706;49.036;12.112;2023-02-19T14:48:46;98237.97;;;9.33;76.09
21096;BME280;10706;49.036;12.112;2023-02-19T14:51:38;98244.78;;;9.23;76.01
21096;BME280;10706;49.036;12.112;2023-02-19T14:54:24;98257.88;;;9.31;75.46
21096;BME280;10706;49.036;12.112;2023-02-19T14:56:53;98250.25;;;9.34;77.17
21096;BME280;10706;49.036;12.112;2023-02-19T14:59:22;98269.59;;;9.23;77.41
21096;BME280;10706;49.036;12.112;2023-02-19T15:02:13;98274.25;;;8.96;78.40
21096;BME280;10706;49.036;12.112;2023-02-19T15:04:39;98284.59;;;8.66;82.44
21096;BME280;10706;49.036;12.112;2023-02-19T15:07:08;98284.22;;;8.49;85.97
21096;BME280;10706;49.036;12.112;2023-02-19T15:09:49;98292.56;;;8.59;84.83
21096;BME280;10706;49.036;12.112;2023-02-19T15:12:20;98293.59;;;8.65;83.36
21096;BME280;10706;49.036;12.112;2023-02-19T15:14:49;98292.78;;;8.57;84.29
21096;BME280;10706;49.036;12.112;2023-02-19T15:17:29;98302.22;;;8.60;82.77
21096;BME280;10706;49.036;12.112;2023-02-19T15:20:00;98304.66;;;8.62;83.34